Time;durP1;ratioP1;P1;durP2;ratioP2;P2;SDS_P1;SDS_P2;PMS_P1;PMS_P2;Temp;Humidity;BMP_temperature;BMP_pressure;BME280_temperature;BME280_humidity;BME280_pressure;Samples;Min_cycle;Max_cycle;Signal;HPM_P1;HPM_P2
2024/02/04 00:00:25;;;;;;;4.20;3.80;;;9.00;99.90;;;-141.84;100.00;119224.81;5001254;28;20219;-56
2024/02/04 00:02:54;;;;;;;6.83;4.40;;;9.00;99.90;;;-141.84;100.00;119224.81;5000958;28;20236;-55
2024/02/04 00:05:22;;;;;;;5.03;4.27;;;9.00;99.90;;;-141.84;100.00;119224.81;4994918;28;20297;-55
2024/02/04 00:07:51;;;;;;;4.17;3.77;;;9.00;99.90;;;-141.84;100.00;119224.81;4999725;28;20321;-56
2024/02/04 00:10:21;;;;;;;4.70;4.30;;;9.00;99.90;;;-141.84;100.00;119224.81;4996869;28;20289;-55
2024/02/04 00:12:49;;;;;;;6.97;4.47;;;9.00;99.90;;;-141.84;100.00;119224.81;4991057;28;20250;-58
2024/02/04 00:15:17;;;;;;;5.80;4.50;;;8.90;99.90;;;-141.84;100.00;119224.81;4992733;28;20230;-54
2024/02/04 00:17:45;;;;;;;5.87;4.13;;;9.00;99.90;;;-141.84;100.00;119224.81;5003934;28;20660;-55
2024/02/04 00:20:14;;;;;;;6.10;4.83;;;8.90;99.90;;;-141.84;100.00;119224.81;4998118;28;20223;-55
2024/02/04 00:22:44;;;;;;;5.60;5.00;;;8.90;99.90;;;-141.84;100.00;119224.81;5000671;28;20203;-53
2024/02/04 00:25:14;;;;;;;6.33;5.10;;;8.90;99.90;;;-141.84;100.00;119224.81;5000049;28;20229;-56
2024/02/04 00:27:44;;;;;;;5.70;5.10;;;8.90;99.90;;;-141.84;100.00;119224.81;4995397;28;20669;-55
2024/02/04 00:30:13;;;;;;;4.67;4.27;;;8.90;99.90;;;-141.84;100.00;119224.81;5003855;28;20720;-52
2024/02/04 00:32:41;;;;;;;6.73;5.00;;;8.80;99.90;;;-141.84;100.00;119224.81;5001096;28;20313;-54
2024/02/04 00:35:09;;;;;;;5.10;4.60;;;8.70;99.90;;;-141.84;100.00;119224.81;4999941;28;20254;-55
2024/02/04 00:37:37;;;;;;;5.50;4.83;;;8.70;99.90;;;-141.84;100.00;119224.81;4991934;28;20230;-58
2024/02/04 00:40:08;;;;;;;5.80;4.63;;;8.60;99.90;;;-141.84;100.00;119224.81;5001409;28;20314;-58
2024/02/04 00:42:36;;;;;;;6.03;4.73;;;8.60;99.90;;;-141.84;100.00;119224.81;4998496;28;20215;-54
2024/02/04 00:45:06;;;;;;;5.90;4.97;;;8.50;99.90;;;-141.84;100.00;119224.81;5001227;28;20218;-57
2024/02/04 00:47:35;;;;;;;6.57;5.20;;;8.50;99.90;;;-141.84;100.00;119224.81;5000643;28;20257;-56
2024/02/04 00:50:03;;;;;;;5.63;5.03;;;8.50;99.90;;;-141.84;100.00;119224.81;4998555;28;20222;-58
2024/02/04 00:52:32;;;;;;;6.13;4.87;;;8.50;99.90;;;-141.84;100.00;119224.81;5002031;28;20196;-53
2024/02/04 00:55:00;;;;;;;6.93;5.50;;;8.40;99.90;;;-141.84;100.00;119224.81;5001143;28;20219;-54
2024/02/04 00:57:28;;;;;;;6.10;5.30;;;8.40;99.90;;;-141.84;100.00;119224.81;5003085;28;20627;-55
2024/02/04 00:59:57;;;;;;;7.17;5.70;;;8.50;99.90;;;-141.84;100.00;119224.81;5003905;28;20226;-54
2024/02/04 01:02:26;;;;;;;6.63;5.57;;;8.50;99.90;;;-141.84;100.00;119224.81;5003874;28;20246;-54
2024/02/04 01:04:54;;;;;;;6.30;5.03;;;8.50;99.90;;;-141.84;100.00;119224.81;4993020;28;20350;-56
2024/02/04 01:07:23;;;;;;;6.27;5.30;;;8.50;99.90;;;-141.84;100.00;119224.81;4999502;28;20223;-55
2024/02/04 01:09:51;;;;;;;8.03;5.50;;;8.50;99.90;;;-141.84;100.00;119224.81;5001315;28;20223;-55
2024/02/04 01:12:19;;;;;;;6.87;5.00;;;8.60;99.90;;;-141.84;100.00;119224.81;5003586;28;20226;-52
2024/02/04 01:14:47;;;;;;;5.47;4.63;;;8.60;99.90;;;-141.84;100.00;119224.81;5003711;28;20269;-55
2024/02/04 01:17:16;;;;;;;7.67;5.00;;;8.60;99.90;;;-141.84;100.00;119224.81;5002913;28;20229;-54
2024/02/04 01:19:45;;;;;;;5.67;4.77;;;8.60;99.90;;;-141.84;100.00;119224.81;4996353;28;20249;-56
2024/02/04 01:22:14;;;;;;;8.53;5.30;;;8.70;99.90;;;-141.84;100.00;119224.81;4997217;28;20234;-55
2024/02/04 01:24:42;;;;;;;6.67;5.50;;;8.70;99.90;;;-141.84;100.00;119224.81;5001756;28;20251;-55
2024/02/04 01:27:10;;;;;;;6.13;5.30;;;8.70;99.90;;;-141.84;100.00;119224.81;5002967;28;20272;-55
2024/02/04 01:29:38;;;;;;;8.03;4.90;;;8.70;99.90;;;-141.84;100.00;119224.81;5003281;28;20250;-55
2024/02/04 01:32:07;;;;;;;6.20;4.80;;;8.70;99.90;;;-141.84;100.00;119224.81;4994945;28;20199;-56
2024/02/04 01:34:35;;;;;;;6.93;5.47;;;8.70;99.90;;;-141.84;100.00;119224.81;5003424;28;20712;-57
2024/02/04 01:37:05;;;;;;;7.40;5.90;;;8.70;99.90;;;-141.84;100.00;119224.81;5002756;28;20238;-54
2024/02/04 01:39:34;;;;;;;7.73;5.33;;;8.70;99.90;;;-141.84;100.00;119224.81;5000599;28;20632;-54
2024/02/04 01:42:02;;;;;;;6.53;5.13;;;8.70;99.90;;;-141.84;100.00;119224.81;4997389;28;20317;-51
2024/02/04 01:44:31;;;;;;;7.97;5.50;;;8.70;99.90;;;-141.84;100.00;119224.81;5002845;28;20389;-55
2024/02/04 01:46:59;;;;;;;7.13;5.37;;;8.60;99.90;;;-141.84;100.00;119224.81;5000555;28;20670;-56
2024/02/04 01:49:27;;;;;;;6.03;5.23;;;8.70;99.90;;;-141.84;100.00;119224.81;5000912;28;20203;-54
2024/02/04 01:51:57;;;;;;;7.93;5.70;;;8.70;99.90;;;-141.84;100.00;119224.81;5000379;28;20226;-55
2024/02/04 01:54:28;;;;;;;7.70;6.00;;;8.60;99.90;;;-141.84;100.00;119224.81;5002874;28;20219;-52
2024/02/04 01:57:01;;;;;;;7.50;5.83;;;8.60;99.90;;;-141.84;100.00;119224.81;5002606;28;20222;-54
2024/02/04 01:59:31;;;;;;;8.10;6.10;;;8.60;99.90;;;-141.84;100.00;119224.81;5002606;28;20229;-54
2024/02/04 02:02:01;;;;;;;7.10;6.23;;;8.60;99.90;;;-141.84;100.00;119224.81;5002335;28;20209;-54
2024/02/04 02:04:29;;;;;;;8.50;5.93;;;8.50;99.90;;;-141.84;100.00;119224.81;5000784;28;20241;-54
2024/02/04 02:06:59;;;;;;;7.07;5.70;;;8.60;99.90;;;-141.84;100.00;119224.81;5002673;28;20531;-56
2024/02/04 02:09:30;;;;;;;8.67;6.73;;;8.60;99.90;;;-141.84;100.00;119224.81;5004623;28;20223;-55
2024/02/04 02:12:13;;;;;;;8.07;6.17;;;8.60;99.90;;;-141.84;100.00;119224.81;4998788;28;20662;-56
2024/02/04 02:14:48;;;;;;;8.43;6.33;;;8.70;99.90;;;-141.84;100.00;119224.81;5002578;28;20634;-57
2024/02/04 02:17:24;;;;;;;9.40;6.40;;;8.70;99.90;;;-141.84;100.00;119224.81;4994434;28;20317;-55
2024/02/04 02:20:03;;;;;;;10.20;7.07;;;8.70;99.90;;;-141.84;100.00;119224.81;5002333;28;20542;-55
2024/02/04 02:22:50;;;;;;;10.43;7.20;;;8.70;99.90;;;-141.84;100.00;119224.81;5001662;28;20262;-55
2024/02/04 02:25:22;;;;;;;9.47;6.90;;;8.70;99.90;;;-141.84;100.00;119224.81;5006495;28;20683;-56
2024/02/04 02:27:52;;;;;;;8.40;6.67;;;8.70;99.90;;;-141.84;100.00;119224.81;5000297;28;20285;-54
2024/02/04 02:30:20;;;;;;;9.10;6.83;;;8.60;99.90;;;-141.84;100.00;119224.81;5000017;28;20598;-56
2024/02/04 02:32:50;;;;;;;8.77;6.93;;;8.50;99.90;;;-141.84;100.00;119224.81;4999338;28;20222;-57
2024/02/04 02:35:19;;;;;;;9.83;6.60;;;8.40;99.90;;;-141.84;100.00;119224.81;5002565;28;20613;-55
2024/02/04 02:37:57;;;;;;;7.13;5.80;;;8.40;99.90;;;-141.84;100.00;119224.81;5002172;28;20195;-57
2024/02/04 02:40:38;;;;;;;9.63;6.30;;;8.30;99.90;;;-141.84;100.00;119224.81;4997618;28;20199;-53
2024/02/04 02:43:08;;;;;;;9.43;6.43;;;8.30;99.90;;;-141.84;100.00;119224.81;4995835;28;20247;-54
2024/02/04 02:45:38;;;;;;;9.50;6.87;;;8.30;99.90;;;-141.84;100.00;119224.81;5002775;28;20298;-56
2024/02/04 02:48:08;;;;;;;8.53;6.13;;;8.30;99.90;;;-141.84;100.00;119224.81;4993304;28;20230;-55
2024/02/04 02:50:37;;;;;;;8.73;6.83;;;8.10;99.90;;;-141.84;100.00;119224.81;4999375;28;20223;-55
2024/02/04 02:53:05;;;;;;;7.67;6.07;;;8.10;99.90;;;-141.84;100.00;119224.81;5000630;28;20298;-54
2024/02/04 02:55:35;;;;;;;9.57;6.20;;;8.00;99.90;;;-141.84;100.00;119224.81;5005558;28;20223;-54
2024/02/04 02:58:03;;;;;;;8.97;6.27;;;8.00;99.90;;;-141.84;100.00;119224.81;4999154;28;20266;-54
2024/02/04 03:00:32;;;;;;;8.27;6.50;;;7.90;99.90;;;-141.84;100.00;119224.81;4997011;28;20219;-53
2024/02/04 03:03:00;;;;;;;9.13;6.60;;;7.80;99.90;;;-141.84;100.00;119224.81;5001372;28;20277;-54
2024/02/04 03:05:29;;;;;;;11.07;6.77;;;7.80;99.90;;;-141.84;100.00;119224.81;5001540;28;20231;-54
2024/02/04 03:07:57;;;;;;;8.50;6.50;;;7.90;99.90;;;-141.84;100.00;119224.81;4998598;28;20858;-54
2024/02/04 03:10:25;;;;;;;9.50;6.37;;;7.90;99.90;;;-141.84;100.00;119224.81;5004830;28;20229;-57
2024/02/04 03:12:55;;;;;;;10.30;6.70;;;7.90;99.90;;;-141.84;100.00;119224.81;5000669;28;20231;-54
2024/02/04 03:15:23;;;;;;;9.47;6.23;;;7.90;99.90;;;-141.84;100.00;119224.81;4999709;28;20223;-56
2024/02/04 03:17:51;;;;;;;10.23;7.17;;;7.90;99.90;;;-141.84;100.00;119224.81;5003677;28;20574;-55
2024/02/04 03:20:19;;;;;;;10.30;7.00;;;7.90;99.90;;;-141.84;100.00;119224.81;5004099;28;20226;-56
2024/02/04 03:22:49;;;;;;;10.80;7.47;;;8.10;99.90;;;-141.84;100.00;119224.81;5001950;28;20249;-54
2024/02/04 03:25:17;;;;;;;9.10;6.43;;;8.00;99.90;;;-141.84;100.00;119224.81;5001917;28;20205;-55
2024/02/04 03:27:45;;;;;;;9.43;6.33;;;8.10;99.90;;;-141.84;100.00;119224.81;4999802;28;20262;-56
2024/02/04 03:30:15;;;;;;;9.37;6.40;;;8.10;99.90;;;-141.84;100.00;119224.81;5004255;28;20448;-57
2024/02/04 03:32:43;;;;;;;7.80;6.50;;;8.10;99.90;;;-141.84;100.00;119224.81;5002306;28;20318;-55
2024/02/04 03:35:12;;;;;;;8.77;6.23;;;8.20;99.90;;;-141.84;100.00;119224.81;4993011;28;20519;-58
2024/02/04 03:37:40;;;;;;;7.27;5.50;;;8.40;99.90;;;-141.84;100.00;119224.81;5001662;28;20202;-55
2024/02/04 03:40:10;;;;;;;6.67;5.13;;;8.30;99.90;;;-141.84;100.00;119224.81;4997261;28;20306;-56
2024/02/04 03:42:40;;;;;;;6.80;5.20;;;8.30;99.90;;;-141.84;100.00;119224.81;5000887;28;20314;-52
2024/02/04 03:45:09;;;;;;;5.93;4.60;;;8.40;99.90;;;-141.84;100.00;119224.81;5000793;28;20589;-53
2024/02/04 03:47:39;;;;;;;5.30;4.53;;;8.50;99.90;;;-141.84;100.00;119224.81;5000053;28;20306;-54
2024/02/04 03:50:08;;;;;;;5.57;4.50;;;8.40;99.90;;;-141.84;100.00;119224.81;4998126;28;20242;-59
2024/02/04 03:52:36;;;;;;;5.17;3.90;;;8.40;99.90;;;-141.84;100.00;119224.81;4999277;28;20227;-55
2024/02/04 03:55:05;;;;;;;4.73;4.17;;;8.40;99.90;;;-141.84;100.00;119224.81;4999007;28;20314;-53
2024/02/04 03:57:34;;;;;;;4.63;3.97;;;8.40;99.90;;;-141.84;100.00;119224.81;4999723;28;20254;-54
2024/02/04 04:00:03;;;;;;;5.07;4.03;;;8.40;99.90;;;-141.84;100.00;119224.81;4998075;28;20228;-52
2024/02/04 04:02:31;;;;;;;5.20;4.20;;;8.40;99.90;;;-141.84;100.00;119224.81;4999684;28;20653;-55
2024/02/04 04:05:00;;;;;;;5.40;3.90;;;8.40;99.90;;;-141.84;100.00;119224.81;5000566;28;20191;-55
2024/02/04 04:07:29;;;;;;;4.63;3.80;;;8.50;99.90;;;-141.84;100.00;119224.81;5001220;28;20227;-54
2024/02/04 04:09:57;;;;;;;5.60;3.77;;;8.50;99.90;;;-141.84;100.00;119224.81;4997501;28;20218;-56
2024/02/04 04:12:25;;;;;;;4.53;3.73;;;8.50;99.90;;;-141.84;100.00;119224.81;4997800;28;20230;-56
2024/02/04 04:14:54;;;;;;;4.60;3.80;;;8.30;99.90;;;-141.84;100.00;119224.81;4997871;28;20227;-55
2024/02/04 04:17:22;;;;;;;5.43;3.70;;;8.50;99.90;;;-141.84;100.00;119224.81;4989875;28;20262;-54
2024/02/04 04:19:50;;;;;;;5.70;3.90;;;8.50;99.90;;;-141.84;100.00;119224.81;4990581;28;20261;-55
2024/02/04 04:22:20;;;;;;;5.70;3.77;;;8.50;99.90;;;-141.84;100.00;119224.81;4998795;28;20261;-56
2024/02/04 04:24:48;;;;;;;4.83;3.87;;;8.50;99.90;;;-141.84;100.00;119224.81;5000407;28;20634;-54
2024/02/04 04:27:16;;;;;;;4.40;3.70;;;8.50;99.90;;;-141.84;100.00;119224.81;5007880;28;20215;-54
2024/02/04 04:29:44;;;;;;;4.90;3.70;;;8.50;99.90;;;-141.84;100.00;119224.81;5004972;28;20219;-53
2024/02/04 04:32:12;;;;;;;6.73;3.90;;;8.60;99.90;;;-141.84;100.00;119224.81;5006916;28;20486;-54
2024/02/04 04:34:41;;;;;;;5.10;3.97;;;8.60;99.90;;;-141.84;100.00;119224.81;5006869;28;20703;-55
2024/02/04 04:37:09;;;;;;;6.07;3.87;;;8.60;99.90;;;-141.84;100.00;119224.81;5003624;28;20333;-54
2024/02/04 04:39:39;;;;;;;6.20;4.40;;;8.60;99.90;;;-141.84;100.00;119224.81;5006617;28;20222;-55
2024/02/04 04:42:07;;;;;;;7.53;4.27;;;8.60;99.90;;;-141.84;100.00;119224.81;5000920;28;20579;-57
2024/02/04 04:44:35;;;;;;;6.50;4.70;;;8.60;99.90;;;-141.84;100.00;119224.81;5001718;28;20314;-52
2024/02/04 04:47:04;;;;;;;6.67;5.10;;;8.60;99.90;;;-141.84;100.00;119224.81;5005999;28;20774;-55
2024/02/04 04:49:32;;;;;;;5.90;4.80;;;8.60;99.90;;;-141.84;100.00;119224.81;5004851;28;20282;-56
2024/02/04 04:52:00;;;;;;;8.67;5.60;;;8.50;99.90;;;-141.84;100.00;119224.81;5004623;28;20245;-53
2024/02/04 04:54:29;;;;;;;7.53;5.53;;;8.50;99.90;;;-141.84;100.00;119224.81;4998621;28;20282;-55
2024/02/04 04:56:58;;;;;;;7.63;5.83;;;8.50;99.90;;;-141.84;100.00;119224.81;5003789;28;20234;-56
2024/02/04 04:59:26;;;;;;;8.70;5.63;;;8.50;99.90;;;-141.84;100.00;119224.81;4996152;28;20657;-52
2024/02/04 05:01:55;;;;;;;8.53;5.40;;;8.50;99.90;;;-141.84;100.00;119224.81;5009934;28;20632;-55
2024/02/04 05:04:25;;;;;;;8.03;5.73;;;8.50;99.90;;;-141.84;100.00;119224.81;5006145;28;20807;-54
2024/02/04 05:06:53;;;;;;;6.60;5.13;;;8.40;99.90;;;-141.84;100.00;119224.81;5003926;28;20227;-53
2024/02/04 05:09:22;;;;;;;8.40;5.33;;;8.50;99.90;;;-141.84;100.00;119224.81;5002749;28;20456;-50
2024/02/04 05:11:50;;;;;;;6.80;5.03;;;8.50;99.90;;;-141.84;100.00;119224.81;5005745;28;20296;-54
2024/02/04 05:14:20;;;;;;;8.20;5.20;;;8.60;99.90;;;-141.84;100.00;119224.81;5003889;28;20223;-54
2024/02/04 05:16:48;;;;;;;6.27;5.30;;;8.50;99.90;;;-141.84;100.00;119224.81;5003961;28;20191;-56
2024/02/04 05:19:16;;;;;;;8.20;5.13;;;8.50;99.90;;;-141.84;100.00;119224.81;5005662;28;20199;-55
2024/02/04 05:21:44;;;;;;;8.30;5.73;;;8.60;99.90;;;-141.84;100.00;119224.81;5006104;28;20777;-55
2024/02/04 05:24:13;;;;;;;8.47;5.40;;;8.60;99.90;;;-141.84;100.00;119224.81;5006226;28;20246;-54
2024/02/04 05:26:41;;;;;;;6.50;5.33;;;8.60;99.90;;;-141.84;100.00;119224.81;5003409;28;20648;-56
2024/02/04 05:29:09;;;;;;;6.63;5.57;;;8.50;99.90;;;-141.84;100.00;119224.81;5003704;28;20581;-54
2024/02/04 05:31:43;;;;;;;7.83;5.50;;;8.50;99.90;;;-141.84;100.00;119224.81;5004122;28;20227;-54
2024/02/04 05:34:11;;;;;;;6.60;5.03;;;8.50;99.90;;;-141.84;100.00;119224.81;5003460;28;20215;-57
2024/02/04 05:36:41;;;;;;;6.97;5.30;;;8.40;99.90;;;-141.84;100.00;119224.81;5003116;28;20263;-54
2024/02/04 05:39:13;;;;;;;8.63;6.10;;;8.40;99.90;;;-141.84;100.00;119224.81;5006190;28;20218;-52
2024/02/04 05:41:42;;;;;;;7.23;5.40;;;8.40;99.90;;;-141.84;100.00;119224.81;5000029;28;20705;-58
2024/02/04 05:44:11;;;;;;;7.60;5.90;;;8.30;99.90;;;-141.84;100.00;119224.81;5000709;28;20310;-56
2024/02/04 05:46:40;;;;;;;7.10;5.10;;;8.30;99.90;;;-141.84;100.00;119224.81;5002535;28;20227;-56
2024/02/04 05:49:09;;;;;;;7.17;5.27;;;8.40;99.90;;;-141.84;100.00;119224.81;5001834;28;20226;-54
2024/02/04 05:51:40;;;;;;;7.00;5.47;;;8.40;99.90;;;-141.84;100.00;119224.81;5002858;28;20225;-55
2024/02/04 05:54:09;;;;;;;7.53;5.50;;;8.30;99.90;;;-141.84;100.00;119224.81;4992566;28;20219;-53
2024/02/04 05:56:37;;;;;;;8.53;5.57;;;8.30;99.90;;;-141.84;100.00;119224.81;4999811;28;20717;-55
2024/02/04 05:59:06;;;;;;;7.30;5.77;;;8.40;99.90;;;-141.84;100.00;119224.81;5000719;28;20677;-55
2024/02/04 06:01:34;;;;;;;8.20;6.03;;;8.40;99.90;;;-141.84;100.00;119224.81;5003000;28;20226;-54
2024/02/04 06:04:03;;;;;;;8.37;6.13;;;8.40;99.90;;;-141.84;100.00;119224.81;5002854;28;20545;-53
2024/02/04 06:06:33;;;;;;;8.27;6.00;;;8.40;99.90;;;-141.84;100.00;119224.81;5001610;28;20265;-55
2024/02/04 06:09:02;;;;;;;7.93;6.20;;;8.40;99.90;;;-141.84;100.00;119224.81;5001810;28;20762;-56
2024/02/04 06:11:30;;;;;;;8.20;6.10;;;8.40;99.90;;;-141.84;100.00;119224.81;5006284;28;20407;-59
2024/02/04 06:13:58;;;;;;;7.30;6.00;;;8.40;99.90;;;-141.84;100.00;119224.81;5001560;28;20612;-55
2024/02/04 06:16:27;;;;;;;8.63;6.10;;;8.40;99.90;;;-141.84;100.00;119224.81;5000647;28;20253;-58
2024/02/04 06:18:57;;;;;;;8.23;5.87;;;8.50;99.90;;;-141.84;100.00;119224.81;4999658;28;20310;-55
2024/02/04 06:21:26;;;;;;;7.20;5.57;;;8.50;99.90;;;-141.84;100.00;119224.81;5002017;28;20747;-52
2024/02/04 06:23:55;;;;;;;6.33;4.80;;;8.50;99.90;;;-141.84;100.00;119224.81;5002341;28;20222;-55
2024/02/04 06:26:24;;;;;;;7.10;5.30;;;8.50;99.90;;;-141.84;100.00;119224.81;5001519;28;20325;-53
2024/02/04 06:28:53;;;;;;;6.33;4.70;;;8.60;99.90;;;-141.84;100.00;119224.81;4999810;28;20597;-55
2024/02/04 06:31:21;;;;;;;6.10;4.80;;;8.60;99.90;;;-141.84;100.00;119224.81;4999904;28;20701;-55
2024/02/04 06:33:49;;;;;;;5.30;4.23;;;8.60;99.90;;;-141.84;100.00;119224.81;5000120;28;20223;-54
2024/02/04 06:36:18;;;;;;;5.33;4.20;;;8.60;99.90;;;-141.84;100.00;119224.81;5001919;28;20663;-55
2024/02/04 06:38:46;;;;;;;4.97;4.43;;;8.60;99.90;;;-141.84;100.00;119224.81;4995377;28;20223;-53
2024/02/04 06:41:15;;;;;;;5.07;3.97;;;8.70;99.90;;;-141.84;100.00;119224.81;5004466;28;20679;-56
2024/02/04 06:43:44;;;;;;;4.03;3.63;;;8.70;99.90;;;-141.84;100.00;119224.81;5002727;28;20188;-52
2024/02/04 06:46:12;;;;;;;3.83;3.17;;;8.70;99.90;;;-141.84;100.00;119224.81;4990609;28;20347;-54
2024/02/04 06:48:40;;;;;;;3.20;2.90;;;8.70;99.90;;;-141.84;100.00;119224.81;4999253;28;20767;-54
2024/02/04 06:51:08;;;;;;;3.87;2.93;;;8.80;99.90;;;-141.84;100.00;119224.81;5001898;28;20715;-54
2024/02/04 06:53:37;;;;;;;2.70;2.43;;;8.80;99.90;;;-141.84;100.00;119224.81;5001954;28;20253;-54
2024/02/04 06:56:06;;;;;;;3.57;2.53;;;8.80;99.90;;;-141.84;100.00;119224.81;4999361;28;20285;-55
2024/02/04 06:58:38;;;;;;;3.60;2.50;;;8.90;99.90;;;-141.84;100.00;119224.81;4999865;28;20192;-54
2024/02/04 07:01:06;;;;;;;2.27;2.07;;;8.90;99.90;;;-141.84;100.00;119224.81;4998830;28;20298;-55
2024/02/04 07:03:34;;;;;;;2.30;2.10;;;9.20;99.90;;;-141.84;100.00;119224.81;5001404;28;20318;-55
2024/02/04 07:06:03;;;;;;;2.20;1.93;;;8.90;99.90;;;-141.84;100.00;119224.81;5001687;28;20253;-61
2024/02/04 07:08:31;;;;;;;2.30;2.10;;;8.90;99.90;;;-141.84;100.00;119224.81;4994389;28;20716;-53
2024/02/04 07:10:59;;;;;;;2.00;1.90;;;8.90;99.90;;;-141.84;100.00;119224.81;4994120;28;20203;-57
2024/02/04 07:13:28;;;;;;;2.43;2.23;;;9.00;99.90;;;-141.84;100.00;119224.81;5001208;28;20199;-55
2024/02/04 07:15:57;;;;;;;2.43;2.23;;;9.00;99.90;;;-141.84;100.00;119224.81;5000078;28;20317;-55
2024/02/04 07:18:26;;;;;;;2.40;2.20;;;9.00;99.90;;;-141.84;100.00;119224.81;4998342;28;20693;-54
2024/02/04 07:20:54;;;;;;;2.70;2.50;;;9.10;99.90;;;-141.84;100.00;119224.81;4997804;28;20226;-55
2024/02/04 07:23:22;;;;;;;2.30;2.10;;;9.10;99.90;;;-141.84;100.00;119224.81;4999991;28;20769;-56
2024/02/04 07:25:50;;;;;;;2.83;2.63;;;9.10;99.90;;;-141.84;100.00;119224.81;5002048;28;20203;-56
2024/02/04 07:28:19;;;;;;;4.07;3.67;;;9.10;99.90;;;-141.84;100.00;119224.81;5000658;28;20199;-59
2024/02/04 07:30:47;;;;;;;5.13;4.40;;;9.10;99.90;;;-141.84;100.00;119224.81;5001139;28;20767;-57
2024/02/04 07:33:16;;;;;;;5.80;5.07;;;9.10;99.90;;;-141.84;100.00;119224.81;5001345;28;20233;-57
2024/02/04 07:35:45;;;;;;;6.97;4.93;;;9.10;99.90;;;-141.84;100.00;119224.81;5001591;28;20253;-56
2024/02/04 07:38:13;;;;;;;5.90;5.23;;;9.10;99.90;;;-141.84;100.00;119224.81;4990752;28;20914;-55
2024/02/04 07:40:41;;;;;;;5.43;4.90;;;9.10;99.90;;;-141.84;100.00;119224.81;5000714;28;20669;-54
2024/02/04 07:43:09;;;;;;;11.23;5.60;;;9.10;99.90;;;-141.84;100.00;119224.81;4996637;28;20237;-57
2024/02/04 07:45:38;;;;;;;6.13;5.50;;;9.20;99.90;;;-141.84;100.00;119224.81;5001119;28;20223;-57
2024/02/04 07:48:09;;;;;;;4.90;4.40;;;9.20;99.90;;;-141.84;100.00;119224.81;4998978;28;20234;-55
2024/02/04 07:50:39;;;;;;;4.77;4.37;;;9.20;99.90;;;-141.84;100.00;119224.81;4999092;28;20300;-54
2024/02/04 07:53:07;;;;;;;3.83;3.47;;;9.30;99.90;;;-141.84;100.00;119224.81;5000282;28;20195;-55
2024/02/04 07:55:35;;;;;;;4.07;3.67;;;9.30;99.90;;;-141.84;100.00;119224.81;5001249;28;20249;-54
2024/02/04 07:58:04;;;;;;;4.53;4.13;;;9.40;99.90;;;-141.84;100.00;119224.81;4998951;28;20284;-57
2024/02/04 08:00:32;;;;;;;3.23;2.90;;;9.40;99.90;;;-141.84;100.00;119224.81;4997421;28;20577;-55
2024/02/04 08:03:00;;;;;;;3.67;2.70;;;9.50;99.90;;;-141.84;100.00;119224.81;4998433;28;20282;-55
2024/02/04 08:05:29;;;;;;;3.63;2.87;;;9.50;99.90;;;-141.84;100.00;119224.81;4999814;28;20652;-54
2024/02/04 08:07:59;;;;;;;3.43;2.80;;;9.50;99.90;;;-141.84;100.00;119224.81;4997588;28;20766;-56
2024/02/04 08:10:27;;;;;;;2.90;2.60;;;9.50;99.90;;;-141.84;100.00;119224.81;4998658;28;20277;-56
2024/02/04 08:12:55;;;;;;;2.60;2.40;;;9.50;99.90;;;-141.84;100.00;119224.81;4997573;28;20226;-58
2024/02/04 08:15:24;;;;;;;2.50;2.30;;;9.50;99.90;;;-141.84;100.00;119224.81;4997933;28;20219;-53
2024/02/04 08:17:52;;;;;;;2.23;1.80;;;9.50;99.90;;;-141.84;100.00;119224.81;4997952;28;20330;-55
2024/02/04 08:20:21;;;;;;;1.60;1.50;;;9.50;99.90;;;-141.84;100.00;119224.81;5000333;28;20226;-53
2024/02/04 08:22:49;;;;;;;1.20;1.10;;;9.50;99.90;;;-141.84;100.00;119224.81;4997226;28;20199;-55
2024/02/04 08:25:19;;;;;;;1.23;1.13;;;9.60;99.90;;;-141.84;100.00;119224.81;5000165;28;20194;-58
2024/02/04 08:27:48;;;;;;;1.20;1.10;;;9.60;99.90;;;-141.84;100.00;119224.81;4990869;28;20752;-56
2024/02/04 08:30:18;;;;;;;1.00;0.90;;;9.60;99.90;;;-141.84;100.00;119224.81;4999036;28;20252;-57
2024/02/04 08:32:47;;;;;;;1.57;1.10;;;9.70;99.90;;;-141.84;100.00;119224.81;4990047;28;20231;-55
2024/02/04 08:35:15;;;;;;;1.83;1.00;;;9.70;99.90;;;-141.84;100.00;119224.81;5002009;28;20231;-53
2024/02/04 08:37:44;;;;;;;1.07;0.90;;;9.80;99.90;;;-141.84;100.00;119224.81;4994761;28;20322;-55
2024/02/04 08:40:12;;;;;;;0.93;0.93;;;9.90;99.90;;;-141.84;100.00;119224.81;4999620;28;20504;-54
2024/02/04 08:42:42;;;;;;;1.27;1.17;;;9.90;99.90;;;-141.84;100.00;119224.81;5000105;28;20269;-56
2024/02/04 08:45:11;;;;;;;1.20;1.10;;;9.90;99.90;;;-141.84;100.00;118956.03;5000346;28;20226;-55
2024/02/04 08:47:39;;;;;;;1.27;1.17;;;9.90;99.90;;;-141.84;100.00;119222.75;4986446;28;20238;-54
2024/02/04 08:50:12;;;;;;;1.70;1.20;;;9.90;99.90;;;-141.84;100.00;119222.75;4989817;28;20274;-57
2024/02/04 08:52:40;;;;;;;2.80;1.10;;;9.90;99.90;;;-141.84;100.00;118689.38;4992100;28;20250;-56
2024/02/04 08:55:08;;;;;;;1.40;1.30;;;9.90;99.90;;;-141.84;99.23;116823.13;4999840;28;20727;-59
2024/02/04 08:57:37;;;;;;;1.93;1.67;;;9.90;99.90;;;-141.84;99.16;116556.59;4999776;28;20776;-56
2024/02/04 09:00:11;;;;;;;2.60;1.50;;;9.90;99.90;;;-141.84;97.87;114957.72;4999570;28;20296;-55
2024/02/04 09:02:40;;;;;;;1.13;0.90;;;10.00;99.90;;;-141.84;98.96;116290.06;4998125;28;20239;-56
2024/02/04 09:05:09;;;;;;;2.30;1.20;;;9.90;99.90;;;-141.84;97.73;115490.59;4997454;28;20262;-51
2024/02/04 09:07:38;;;;;;;1.50;1.27;;;9.90;99.90;;;-141.84;99.53;117356.25;4982803;28;20234;-56
2024/02/04 09:10:08;;;;;;;1.70;1.10;;;9.90;99.90;;;-141.84;99.46;117356.25;4988817;28;20609;-56
2024/02/04 09:12:36;;;;;;;1.17;1.13;;;10.00;99.90;;;-141.84;98.96;116290.06;4997705;28;20227;-54
2024/02/04 09:15:08;;;;;;;1.40;1.30;;;10.00;99.90;;;-141.84;98.77;116823.13;5003328;28;20226;-54
2024/02/04 09:17:36;;;;;;;1.77;1.20;;;9.90;99.90;;;-141.84;98.42;115490.59;5003591;28;20226;-57
2024/02/04 09:20:07;;;;;;;1.20;1.10;;;10.00;99.90;;;-141.84;98.41;115757.06;4997387;28;20204;-56
2024/02/04 09:22:36;;;;;;;1.30;1.20;;;10.00;99.90;;;-141.84;99.34;116823.13;4994556;28;20223;-55
2024/02/04 09:25:05;;;;;;;1.60;1.50;;;9.90;99.90;;;-141.84;100.00;117889.44;4990774;28;20230;-54
2024/02/04 09:27:34;;;;;;;2.20;2.00;;;9.90;99.90;;;-141.84;100.00;119222.75;5000779;28;20623;-55
2024/02/04 09:30:03;;;;;;;2.90;2.10;;;9.90;99.90;;;-141.84;100.00;119224.81;5007494;28;20234;-55
2024/02/04 09:32:34;;;;;;;2.30;2.00;;;9.90;99.90;;;-141.84;100.00;119224.81;4995106;28;20222;-55
2024/02/04 09:35:02;;;;;;;2.50;2.30;;;9.80;99.90;;;-141.84;100.00;119224.81;4993819;28;20294;-55
2024/02/04 09:37:31;;;;;;;2.27;2.07;;;9.70;99.90;;;-141.84;100.00;119224.81;4993017;28;20666;-55
2024/02/04 09:40:00;;;;;;;2.63;2.27;;;9.70;99.90;;;-141.84;100.00;119224.81;4999373;28;20273;-53
2024/02/04 09:42:29;;;;;;;2.60;2.40;;;9.60;99.90;;;-141.84;100.00;119224.81;4997269;28;20257;-54
2024/02/04 09:44:58;;;;;;;1.97;1.87;;;9.60;99.90;;;-141.84;100.00;119224.81;5001413;28;20231;-56
2024/02/04 09:47:27;;;;;;;2.40;1.90;;;9.60;99.90;;;-141.84;100.00;119224.81;4998712;28;20382;-56
2024/02/04 09:49:57;;;;;;;2.03;1.83;;;9.50;99.90;;;-141.84;100.00;119224.81;5002723;28;20219;-58
2024/02/04 09:52:31;;;;;;;1.60;1.50;;;9.50;99.90;;;-141.84;100.00;119224.81;5001048;28;20213;-55
2024/02/04 09:55:03;;;;;;;1.83;1.73;;;9.50;99.90;;;-141.84;100.00;119224.81;4992607;28;20265;-56
2024/02/04 09:57:33;;;;;;;2.90;2.27;;;9.60;99.90;;;-141.84;100.00;119224.81;4999649;28;20224;-53
2024/02/04 10:00:04;;;;;;;1.93;1.70;;;9.60;99.90;;;-141.84;100.00;119224.81;5001371;28;20561;-56
2024/02/04 10:02:33;;;;;;;1.70;1.60;;;9.60;99.90;;;-141.84;100.00;119224.81;5001409;28;20306;-55
2024/02/04 10:05:03;;;;;;;2.40;1.93;;;9.60;99.90;;;-141.84;100.00;119224.81;5002717;28;20198;-55
2024/02/04 10:07:32;;;;;;;2.10;1.90;;;9.60;99.90;;;-141.84;100.00;119224.81;4998215;28;20199;-53